Time;durP1;ratioP1;P1;durP2;ratioP2;P2;SDS_P1;SDS_P2;PMS_P1;PMS_P2;Temp;Humidity;BMP_temperature;BMP_pressure;BME280_temperature;BME280_humidity;BME280_pressure;Samples;Min_cycle;Max_cycle;Signal;HPM_P1;HPM_P2
2022/05/12 04:01:01;;;;;;;1.10;1.10;;;12.80;99.90;;;;;;5665630;23;20264;-72
2022/05/12 04:03:27;;;;;;;1.05;1.05;;;12.80;99.90;;;;;;4972359;28;20209;-72
2022/05/12 04:05:55;;;;;;;1.77;1.48;;;12.80;99.90;;;;;;4972274;28;20220;-73
2022/05/12 04:08:22;;;;;;;1.08;1.08;;;12.80;99.90;;;;;;4957290;28;20757;-73
2022/05/12 04:10:49;;;;;;;1.88;1.77;;;12.80;99.90;;;;;;4986625;28;20327;-73
2022/05/12 04:13:17;;;;;;;1.10;1.10;;;12.80;99.90;;;;;;4977518;28;20213;-73
2022/05/12 04:15:44;;;;;;;1.88;1.35;;;12.80;99.90;;;;;;4976058;28;20572;-72
2022/05/12 04:18:12;;;;;;;1.30;1.30;;;12.80;99.90;;;;;;4975173;28;20219;-73
2022/05/12 04:20:39;;;;;;;1.70;1.58;;;12.80;99.90;;;;;;4974367;28;20232;-73
2022/05/12 04:23:06;;;;;;;1.38;1.10;;;12.80;99.90;;;;;;4974381;28;20212;-73
2022/05/12 04:25:33;;;;;;;1.88;1.00;;;12.80;99.90;;;;;;4975100;28;20259;-73
2022/05/12 04:28:00;;;;;;;1.38;1.38;;;12.70;99.90;;;;;;4975034;28;20307;-73
2022/05/12 04:30:27;;;;;;;0.80;0.80;;;12.70;99.90;;;;;;4974229;28;20614;-73
2022/05/12 04:32:55;;;;;;;1.00;1.00;;;12.70;99.90;;;;;;4974568;28;20212;-73
2022/05/12 04:35:23;;;;;;;1.00;1.00;;;12.70;99.90;;;;;;4974854;28;20218;-73
2022/05/12 04:37:51;;;;;;;1.25;1.15;;;12.80;99.90;;;;;;4974457;28;20212;-73
2022/05/12 04:40:22;;;;;;;2.03;1.00;;;12.70;99.90;;;;;;4973714;28;20715;-73
2022/05/12 04:42:49;;;;;;;1.17;1.17;;;12.80;99.90;;;;;;4975358;28;20567;-73
2022/05/12 04:45:16;;;;;;;1.65;1.20;;;12.80;99.90;;;;;;4975174;28;20208;-73
2022/05/12 04:47:45;;;;;;;1.10;1.10;;;12.80;99.90;;;;;;4974731;28;20657;-73
2022/05/12 04:50:14;;;;;;;1.20;1.10;;;12.80;99.90;;;;;;4973879;28;20271;-73
2022/05/12 04:52:44;;;;;;;2.47;1.37;;;12.90;99.90;;;;;;4974385;28;20212;-73
2022/05/12 04:55:11;;;;;;;1.70;1.60;;;12.90;99.90;;;;;;4974359;28;20534;-73
2022/05/12 04:57:38;;;;;;;2.40;2.30;;;12.90;99.90;;;;;;4965944;28;20538;-72
2022/05/12 05:00:07;;;;;;;1.77;1.70;;;12.80;99.90;;;;;;4974099;28;20467;-72
2022/05/12 05:02:34;;;;;;;2.85;1.73;;;12.80;99.90;;;;;;4973774;28;20551;-72
2022/05/12 05:05:01;;;;;;;3.92;1.90;;;12.90;99.90;;;;;;4974738;28;20205;-73
2022/05/12 05:07:28;;;;;;;1.80;1.80;;;12.90;99.90;;;;;;4974070;28;20216;-73
2022/05/12 05:09:56;;;;;;;2.13;2.03;;;12.90;99.90;;;;;;4973430;28;20478;-73
2022/05/12 05:12:22;;;;;;;4.03;2.53;;;12.90;99.90;;;;;;4974396;28;20248;-73
2022/05/12 05:14:49;;;;;;;2.20;2.05;;;12.90;99.90;;;;;;4974364;28;20208;-73
2022/05/12 05:17:16;;;;;;;1.90;1.83;;;12.90;99.90;;;;;;4974084;28;20255;-72
2022/05/12 05:19:43;;;;;;;3.37;1.90;;;13.00;99.90;;;;;;4973724;28;20463;-73
2022/05/12 05:22:10;;;;;;;1.97;1.87;;;13.10;99.90;;;;;;4974018;28;20496;-73
2022/05/12 05:24:36;;;;;;;2.50;2.40;;;13.10;99.90;;;;;;4973144;28;20464;-73
2022/05/12 05:27:06;;;;;;;2.43;2.33;;;13.10;99.90;;;;;;4973878;28;20804;-73
2022/05/12 05:29:33;;;;;;;1.93;1.93;;;13.10;99.90;;;;;;4973308;28;21171;-72
2022/05/12 05:32:00;;;;;;;3.70;2.40;;;13.30;99.90;;;;;;4973983;28;20480;-73
2022/05/12 05:34:26;;;;;;;2.10;2.00;;;13.50;99.90;;;;;;4974114;28;20618;-73
2022/05/12 05:36:53;;;;;;;2.63;2.43;;;13.60;99.90;;;;;;4974182;28;20468;-73
2022/05/12 05:39:21;;;;;;;3.50;2.60;;;13.60;99.90;;;;;;4973202;28;20519;-73
2022/05/12 05:41:48;;;;;;;3.37;2.13;;;13.60;99.90;;;;;;4973651;28;20527;-73
2022/05/12 05:44:16;;;;;;;3.10;2.80;;;13.60;99.90;;;;;;4974578;28;20464;-72
2022/05/12 05:46:43;;;;;;;2.50;2.30;;;13.60;99.90;;;;;;4971930;28;20471;-72
2022/05/12 05:49:09;;;;;;;3.43;2.67;;;13.60;99.90;;;;;;4979232;28;20464;-72
2022/05/12 05:54:19;;;;;;;2.90;2.77;;;13.60;99.90;;;;;;4943760;28;20490;-72
2022/05/12 05:56:47;;;;;;;2.90;2.73;;;13.60;99.90;;;;;;4976362;28;21011;-72
2022/05/12 05:59:14;;;;;;;3.53;3.33;;;13.60;99.90;;;;;;4973544;28;20462;-72
2022/05/12 06:01:42;;;;;;;3.93;3.10;;;13.70;99.90;;;;;;4972862;28;20491;-73
2022/05/12 06:04:09;;;;;;;6.27;2.97;;;13.90;99.90;;;;;;4973284;28;20467;-72
2022/05/12 06:06:36;;;;;;;4.70;3.60;;;14.00;99.90;;;;;;4973292;28;20997;-72
2022/05/12 06:09:03;;;;;;;3.60;3.50;;;14.10;99.90;;;;;;4972561;28;20464;-72
2022/05/12 06:11:30;;;;;;;3.93;3.40;;;14.30;99.90;;;;;;4972569;28;20488;-72
2022/05/12 06:13:56;;;;;;;3.13;3.03;;;14.30;99.90;;;;;;4973108;28;21015;-72
2022/05/12 06:16:23;;;;;;;3.20;3.10;;;14.50;99.90;;;;;;4973371;28;20472;-72
2022/05/12 06:18:52;;;;;;;3.60;3.10;;;14.60;99.90;;;;;;4966692;28;20907;-72
2022/05/12 06:21:19;;;;;;;3.70;3.47;;;14.80;99.90;;;;;;4972170;28;20483;-72
2022/05/12 06:23:46;;;;;;;3.17;2.97;;;15.00;99.90;;;;;;4971932;28;20600;-72
2022/05/12 06:26:14;;;;;;;3.17;2.97;;;15.10;99.90;;;;;;4973111;28;20479;-72
2022/05/12 06:28:45;;;;;;;2.87;2.67;;;15.20;99.90;;;;;;4972842;28;20491;-72
2022/05/12 06:31:12;;;;;;;3.10;2.80;;;15.50;99.90;;;;;;4971690;28;20894;-72
2022/05/12 06:33:41;;;;;;;3.17;2.97;;;15.60;99.90;;;;;;4972728;28;20471;-72
2022/05/12 06:36:09;;;;;;;2.43;2.33;;;15.50;99.90;;;;;;4972867;28;20571;-72
2022/05/12 06:38:38;;;;;;;4.93;3.53;;;15.50;99.90;;;;;;4972183;28;20464;-72
2022/05/12 06:41:06;;;;;;;2.87;2.57;;;15.90;99.90;;;;;;4972066;28;20580;-72
2022/05/12 06:43:33;;;;;;;6.73;3.00;;;15.90;99.90;;;;;;4972657;28;20463;-72
2022/05/12 06:46:00;;;;;;;2.57;2.47;;;15.80;99.90;;;;;;4972710;28;20470;-72
2022/05/12 06:48:26;;;;;;;2.60;2.37;;;15.60;99.90;;;;;;4972635;28;20463;-72
2022/05/12 06:50:54;;;;;;;2.40;2.20;;;15.60;99.90;;;;;;4971665;28;20491;-72
2022/05/12 06:53:22;;;;;;;5.00;2.73;;;15.90;99.90;;;;;;4971698;28;20468;-73
2022/05/12 06:55:49;;;;;;;1.93;1.83;;;16.30;99.90;;;;;;4972264;28;20526;-72
2022/05/12 06:58:17;;;;;;;2.60;2.10;;;16.70;99.90;;;;;;4972153;28;20526;-73
2022/05/12 07:00:44;;;;;;;2.37;2.20;;;17.10;99.90;;;;;;4971678;28;20503;-73
2022/05/12 07:03:12;;;;;;;2.70;1.97;;;17.20;99.90;;;;;;4973172;28;20563;-73
2022/05/12 07:05:40;;;;;;;5.33;2.50;;;17.20;99.90;;;;;;4972745;28;20526;-72
2022/05/12 07:08:08;;;;;;;1.40;1.40;;;17.10;99.90;;;;;;4968974;28;20464;-72
2022/05/12 07:10:36;;;;;;;1.97;1.90;;;17.00;99.90;;;;;;4972412;28;20646;-73
2022/05/12 07:13:03;;;;;;;2.13;2.00;;;17.50;99.90;;;;;;4972839;28;20871;-73
2022/05/12 07:15:30;;;;;;;3.47;2.00;;;18.00;99.90;;;;;;4972705;28;20468;-73
2022/05/12 07:17:58;;;;;;;1.70;1.70;;;18.30;99.90;;;;;;4972176;28;20894;-73
2022/05/12 07:28:42;;;;;;;1.80;1.70;;;20.20;99.90;;;;;;4972458;28;20446;-73
2022/05/12 07:31:09;;;;;;;1.63;1.53;;;20.50;99.90;;;;;;4971470;28;20476;-73
2022/05/12 07:33:38;;;;;;;1.70;1.60;;;20.60;99.90;;;;;;4972000;28;20459;-73
2022/05/12 07:36:09;;;;;;;3.27;1.53;;;20.80;99.90;;;;;;4972204;28;20832;-71
2022/05/12 07:38:36;;;;;;;1.33;1.23;;;20.90;99.90;;;;;;4970734;28;20949;-72
2022/05/12 07:41:07;;;;;;;1.70;1.60;;;21.00;99.90;;;;;;4970850;28;20517;-71
2022/05/12 07:43:33;;;;;;;1.23;1.23;;;21.00;99.90;;;;;;4973470;28;20460;-71
2022/05/12 07:46:00;;;;;;;1.70;1.60;;;20.60;99.90;;;;;;4971895;28;20476;-71
2022/05/12 07:48:27;;;;;;;2.10;1.40;;;20.40;99.90;;;;;;4975310;28;20460;-71
2022/05/12 07:50:54;;;;;;;1.30;1.30;;;20.30;99.90;;;;;;4975005;28;20479;-72
2022/05/12 07:53:20;;;;;;;1.87;1.77;;;20.20;99.90;;;;;;4974830;28;20490;-71
2022/05/12 07:55:48;;;;;;;1.57;1.47;;;19.90;99.90;;;;;;4975858;28;20944;-71
2022/05/12 07:58:17;;;;;;;1.70;1.60;;;19.50;99.90;;;;;;4975454;28;20460;-71
2022/05/12 08:00:44;;;;;;;1.80;1.70;;;19.30;99.90;;;;;;4975202;28;20557;-71
2022/05/12 08:03:11;;;;;;;2.23;1.60;;;19.10;99.90;;;;;;4975505;28;20495;-71
2022/05/12 08:05:38;;;;;;;3.23;1.90;;;19.00;99.90;;;;;;4975687;28;20463;-71
2022/05/12 08:08:06;;;;;;;2.03;1.73;;;18.80;99.90;;;;;;4974819;28;20471;-70
2022/05/12 08:10:33;;;;;;;2.37;1.40;;;18.60;99.90;;;;;;4974829;28;20522;-72
2022/05/12 08:13:00;;;;;;;2.80;2.70;;;18.50;99.90;;;;;;4975609;28;20873;-72
2022/05/12 08:15:28;;;;;;;1.80;1.80;;;18.40;99.90;;;;;;4975518;28;20955;-72
2022/05/12 08:17:57;;;;;;;1.33;1.33;;;18.10;99.90;;;;;;4975342;28;20464;-72
2022/05/12 08:20:25;;;;;;;1.63;1.53;;;18.30;99.90;;;;;;4974938;28;20659;-72
2022/05/12 08:22:52;;;;;;;2.10;1.90;;;18.30;99.90;;;;;;4975198;28;21041;-72
2022/05/12 08:25:19;;;;;;;1.70;1.60;;;18.20;99.90;;;;;;4974847;28;20468;-71
2022/05/12 08:27:47;;;;;;;1.43;1.33;;;17.90;99.90;;;;;;4975166;28;20470;-71
2022/05/12 08:30:16;;;;;;;1.40;1.40;;;17.80;99.90;;;;;;4975024;28;20471;-72
2022/05/12 08:32:44;;;;;;;1.40;1.30;;;17.90;99.90;;;;;;4975207;28;20460;-71
2022/05/12 08:35:11;;;;;;;1.43;1.33;;;17.70;99.90;;;;;;4960778;28;21010;-72
2022/05/12 08:37:38;;;;;;;1.80;1.67;;;17.60;99.90;;;;;;4973624;28;20472;-72
2022/05/12 08:40:07;;;;;;;2.80;1.23;;;17.70;99.90;;;;;;4974138;28;20495;-71
2022/05/12 08:42:37;;;;;;;1.40;1.40;;;17.80;99.90;;;;;;4974685;28;20512;-71
2022/05/12 08:45:06;;;;;;;1.60;1.50;;;17.70;99.90;;;;;;4974924;28;20610;-71
2022/05/12 08:47:37;;;;;;;1.80;1.70;;;17.70;99.90;;;;;;4974471;28;20925;-72
2022/05/12 08:50:08;;;;;;;1.40;1.40;;;17.80;99.90;;;;;;4974510;28;20474;-72
2022/05/12 08:52:44;;;;;;;1.13;1.10;;;18.00;99.90;;;;;;4974002;28;20495;-71
2022/05/12 08:55:16;;;;;;;1.70;1.40;;;18.10;99.90;;;;;;4973847;28;20976;-71
2022/05/12 08:57:51;;;;;;;1.53;1.43;;;17.90;99.90;;;;;;4974830;28;20475;-71
2022/05/12 09:00:18;;;;;;;3.43;1.30;;;17.90;99.90;;;;;;4974167;28;20565;-71
2022/05/12 09:02:52;;;;;;;1.53;1.27;;;17.90;99.90;;;;;;4974746;28;20492;-71
2022/05/12 09:05:26;;;;;;;1.37;1.27;;;17.80;99.90;;;;;;4974517;28;20571;-71
2022/05/12 09:07:59;;;;;;;1.17;1.17;;;17.80;99.90;;;;;;4971054;28;20585;-70
2022/05/12 09:10:45;;;;;;;2.03;1.47;;;18.00;99.90;;;;;;4973353;28;20456;-70
2022/05/12 09:13:16;;;;;;;1.50;1.40;;;18.00;99.90;;;;;;4974086;28;20956;-71
2022/05/12 09:15:49;;;;;;;1.17;1.17;;;18.10;99.90;;;;;;4974625;28;20474;-70
2022/05/12 09:18:18;;;;;;;3.93;1.30;;;18.00;99.90;;;;;;4974153;28;20813;-71
2022/05/12 09:20:46;;;;;;;1.50;1.00;;;17.90;99.90;;;;;;4973409;28;20993;-71
2022/05/12 09:23:13;;;;;;;4.20;1.07;;;18.00;99.90;;;;;;4973440;28;20488;-71
2022/05/12 09:25:42;;;;;;;1.23;0.90;;;18.10;99.90;;;;;;4974394;28;20534;-72
2022/05/12 09:28:25;;;;;;;1.00;1.00;;;18.10;99.90;;;;;;4973989;28;20837;-72
2022/05/12 09:30:52;;;;;;;1.63;1.00;;;18.20;99.90;;;;;;4973637;28;20488;-72
2022/05/12 09:33:33;;;;;;;1.23;1.20;;;18.20;99.90;;;;;;4973926;28;20464;-71
2022/05/12 09:36:04;;;;;;;0.83;0.83;;;18.10;99.90;;;;;;4974071;28;20762;-71
2022/05/12 09:38:38;;;;;;;1.07;1.07;;;18.10;99.90;;;;;;4973053;28;20879;-71
2022/05/12 09:41:15;;;;;;;0.90;0.90;;;18.30;99.90;;;;;;4973277;28;20534;-71
2022/05/12 09:43:41;;;;;;;1.50;1.20;;;18.40;99.90;;;;;;4973678;28;20492;-71
2022/05/12 09:46:20;;;;;;;1.90;1.07;;;18.60;99.90;;;;;;4973409;28;20459;-71
2022/05/12 09:48:48;;;;;;;0.73;0.70;;;18.70;99.90;;;;;;4973372;28;20468;-71
2022/05/12 09:51:30;;;;;;;0.70;0.70;;;18.90;99.90;;;;;;4973269;28;20483;-71
2022/05/12 09:54:16;;;;;;;1.90;1.10;;;19.10;99.90;;;;;;4972806;28;20881;-71
2022/05/12 09:56:46;;;;;;;1.20;1.07;;;19.20;99.90;;;;;;4969688;28;20472;-71
2022/05/12 09:59:23;;;;;;;1.33;1.00;;;19.30;99.90;;;;;;4965622;28;20969;-71
2022/05/12 10:01:53;;;;;;;1.10;1.10;;;19.30;99.90;;;;;;4933968;29;20497;-71
2022/05/12 10:10:07;;;;;;;1.30;1.30;;;19.50;99.90;;;;;;4934001;29;20461;-71
2022/05/12 10:12:38;;;;;;;3.20;1.00;;;19.60;99.90;;;;;;4934454;29;20486;-71
2022/05/12 10:15:16;;;;;;;1.60;1.50;;;19.70;99.90;;;;;;4934577;29;20484;-71
2022/05/12 10:17:46;;;;;;;1.40;1.30;;;19.60;99.90;;;;;;4990860;23;20504;-68
2022/05/12 10:20:18;;;;;;;1.47;1.47;;;19.60;99.90;;;;;;4972326;28;20516;-68
2022/05/12 10:22:54;;;;;;;1.90;1.23;;;19.80;99.90;;;;;;4972306;28;20870;-68
2022/05/12 10:25:31;;;;;;;1.40;1.10;;;19.80;99.90;;;;;;4972377;28;20471;-68
2022/05/12 10:28:05;;;;;;;1.50;1.50;;;19.60;99.90;;;;;;4953499;29;20835;-68
2022/05/12 10:30:42;;;;;;;1.90;1.73;;;19.60;99.90;;;;;;4953398;29;20535;-68
2022/05/12 10:33:25;;;;;;;1.67;1.57;;;19.70;99.90;;;;;;4953190;29;20545;-68
2022/05/12 10:36:00;;;;;;;4.63;1.30;;;19.60;99.90;;;;;;4945361;28;20493;-68
2022/05/12 10:38:38;;;;;;;2.10;1.13;;;19.60;99.40;;;;;;4962023;28;20467;-68
2022/05/12 10:41:13;;;;;;;1.30;1.30;;;19.70;98.50;;;;;;4972590;28;20467;-68
2022/05/12 10:44:02;;;;;;;4.07;1.60;;;19.80;98.70;;;;;;4973073;28;20495;-68
2022/05/12 10:46:38;;;;;;;1.33;1.33;;;19.90;97.70;;;;;;4972617;28;20522;-68
2022/05/12 10:49:14;;;;;;;1.40;1.20;;;20.00;97.80;;;;;;4972842;28;20530;-68
2022/05/12 10:51:47;;;;;;;2.30;1.20;;;20.10;98.60;;;;;;4971995;28;20517;-68
2022/05/12 10:54:25;;;;;;;1.40;1.20;;;20.20;97.50;;;;;;4971499;28;20522;-68
2022/05/12 10:57:04;;;;;;;2.87;0.80;;;20.00;97.30;;;;;;4972112;28;20488;-68
2022/05/12 10:59:47;;;;;;;1.40;1.30;;;19.80;96.00;;;;;;4972034;28;20550;-68
2022/05/12 11:02:20;;;;;;;0.80;0.80;;;19.60;95.50;;;;;;4971947;28;20527;-69
2022/05/12 11:04:52;;;;;;;1.60;1.07;;;19.40;95.20;;;;;;4972091;28;20884;-68
2022/05/12 11:07:38;;;;;;;1.17;1.17;;;19.30;96.20;;;;;;4968604;28;20907;-68
2022/05/12 11:10:12;;;;;;;1.40;1.30;;;19.60;97.60;;;;;;4971142;28;20531;-68
2022/05/12 11:12:43;;;;;;;1.80;1.30;;;19.80;98.10;;;;;;4972004;28;20526;-68
2022/05/12 11:15:15;;;;;;;4.90;1.80;;;20.00;97.40;;;;;;4971886;28;20841;-69
2022/05/12 11:17:47;;;;;;;1.30;1.30;;;19.90;96.40;;;;;;4971388;28;20496;-69
2022/05/12 11:20:23;;;;;;;1.63;1.53;;;19.70;97.20;;;;;;4971562;28;20621;-68
2022/05/12 11:23:03;;;;;;;1.47;1.40;;;19.50;96.90;;;;;;4971516;28;20505;-68
2022/05/12 11:25:38;;;;;;;1.63;1.53;;;19.50;97.00;;;;;;4971559;28;21031;-67
2022/05/12 11:31:09;;;;;;;2.37;1.07;;;19.30;97.40;;;;;;4971523;28;20450;-69
2022/05/12 11:33:38;;;;;;;1.00;1.00;;;19.20;96.60;;;;;;4972026;28;20463;-68
2022/05/12 11:36:09;;;;;;;0.90;0.90;;;19.30;97.20;;;;;;4971708;28;20491;-69
2022/05/12 11:39:01;;;;;;;1.63;1.53;;;19.30;96.30;;;;;;4971056;28;20452;-68
2022/05/12 11:41:43;;;;;;;1.07;1.07;;;19.30;96.20;;;;;;4966578;28;20472;-69
2022/05/12 11:44:34;;;;;;;0.80;0.80;;;19.50;95.60;;;;;;4971664;28;20578;-69
2022/05/12 11:47:26;;;;;;;1.50;1.00;;;19.70;95.40;;;;;;4971711;28;20488;-70
2022/05/12 11:50:16;;;;;;;2.93;0.90;;;19.70;95.90;;;;;;4971080;28;20464;-69
2022/05/12 11:52:53;;;;;;;1.03;1.03;;;19.60;95.80;;;;;;4971147;28;20514;-70
2022/05/12 11:55:27;;;;;;;2.00;1.13;;;19.60;95.70;;;;;;4971123;28;20831;-69
2022/05/12 11:58:03;;;;;;;0.80;0.80;;;19.60;95.90;;;;;;4951852;28;20496;-69
2022/05/12 12:00:54;;;;;;;0.70;0.70;;;19.60;96.00;;;;;;4951696;28;20460;-69
2022/05/12 12:03:57;;;;;;;0.80;0.67;;;19.60;95.00;;;;;;4951950;29;20484;-71
2022/05/12 12:06:46;;;;;;;1.17;0.83;;;19.70;95.90;;;;;;4952413;29;20588;-69
2022/05/12 12:09:48;;;;;;;1.23;1.13;;;19.70;95.00;;;;;;4951296;29;20790;-68
2022/05/12 12:12:49;;;;;;;3.03;0.93;;;19.70;94.80;;;;;;4952364;29;20469;-69
2022/05/12 12:16:04;;;;;;;1.73;1.63;;;19.90;94.20;;;;;;4952115;29;20468;-69
2022/05/12 12:18:53;;;;;;;0.70;0.70;;;20.10;93.90;;;;;;4952264;29;20511;-68
2022/05/12 12:21:48;;;;;;;1.53;1.00;;;20.60;93.40;;;;;;4951633;29;20880;-69
2022/05/12 12:24:49;;;;;;;2.63;1.00;;;20.70;92.40;;;;;;4951354;29;20510;-69
2022/05/12 12:27:41;;;;;;;0.83;0.83;;;20.60;92.60;;;;;;4952022;29;20480;-68
2022/05/12 12:30:22;;;;;;;0.77;0.77;;;20.50;93.10;;;;;;4953388;28;20949;-68
2022/05/12 12:33:07;;;;;;;1.67;1.00;;;20.50;92.50;;;;;;4955756;29;20470;-68
2022/05/12 12:36:00;;;;;;;1.07;1.07;;;20.20;92.40;;;;;;4947843;29;20469;-69
2022/05/12 12:39:07;;;;;;;0.80;0.80;;;20.10;92.70;;;;;;4963876;28;20590;-68
2022/05/12 12:41:43;;;;;;;1.70;1.03;;;20.20;91.10;;;;;;4974196;28;20467;-69
2022/05/12 12:44:17;;;;;;;0.93;0.93;;;20.20;91.10;;;;;;4974489;28;20483;-69
2022/05/12 12:47:01;;;;;;;1.00;0.90;;;20.30;91.30;;;;;;4974371;28;20494;-69
2022/05/12 12:49:30;;;;;;;0.70;0.70;;;20.60;92.10;;;;;;4974306;28;20467;-68
2022/05/12 12:52:05;;;;;;;2.20;0.80;;;20.70;88.30;;;;;;4974329;28;20547;-69
2022/05/12 12:57:21;;;;;;;1.53;0.90;;;20.90;88.00;;;;;;4974217;28;20471;-68
2022/05/12 12:59:52;;;;;;;2.53;0.80;;;20.80;86.70;;;;;;4973340;28;20604;-68
2022/05/12 13:02:30;;;;;;;2.53;0.60;;;20.60;87.90;;;;;;4974201;28;20468;-68
2022/05/12 13:04:58;;;;;;;0.80;0.80;;;20.50;88.40;;;;;;4974199;28;20459;-68
2022/05/12 13:07:29;;;;;;;2.23;0.80;;;20.40;89.60;;;;;;4969597;28;20487;-69
2022/05/12 13:09:56;;;;;;;0.77;0.77;;;20.30;89.50;;;;;;4953656;28;20461;-68
2022/05/12 13:12:26;;;;;;;0.93;0.93;;;20.40;90.00;;;;;;4954571;29;20468;-68
2022/05/12 13:14:54;;;;;;;3.30;0.80;;;20.50;90.10;;;;;;4954822;29;20520;-68
2022/05/12 13:17:29;;;;;;;1.70;1.00;;;20.40;90.00;;;;;;4954431;29;20500;-69
2022/05/12 13:19:58;;;;;;;0.83;0.83;;;20.50;90.50;;;;;;4953956;29;20487;-68
2022/05/12 13:22:30;;;;;;;0.73;0.73;;;20.60;89.20;;;;;;4954118;29;20464;-69
2022/05/12 13:24:58;;;;;;;1.00;1.00;;;20.70;88.80;;;;;;4954190;29;21114;-69
2022/05/12 13:27:29;;;;;;;0.70;0.70;;;20.70;88.60;;;;;;4954476;29;20555;-67
2022/05/12 13:29:56;;;;;;;2.60;1.10;;;20.60;88.60;;;;;;4954196;29;20469;-67
2022/05/12 13:32:39;;;;;;;1.13;0.67;;;20.70;88.90;;;;;;4954521;29;20472;-67
2022/05/12 13:35:15;;;;;;;0.80;0.80;;;20.90;88.00;;;;;;4954598;29;20843;-68
2022/05/12 13:37:49;;;;;;;1.33;1.00;;;21.00;86.30;;;;;;4953959;29;20488;-68
2022/05/12 13:40:45;;;;;;;0.50;0.50;;;21.10;86.20;;;;;;4953570;28;20468;-67
2022/05/12 13:43:19;;;;;;;1.00;0.70;;;21.10;83.30;;;;;;4954788;29;20499;-67
2022/05/12 13:45:47;;;;;;;0.70;0.70;;;21.10;83.90;;;;;;4954242;29;20485;-68
2022/05/12 13:48:20;;;;;;;0.60;0.60;;;21.30;83.20;;;;;;4954093;29;20471;-68
2022/05/12 13:50:50;;;;;;;1.03;0.90;;;21.40;81.70;;;;;;4953759;29;20519;-67
2022/05/12 13:53:30;;;;;;;0.67;0.67;;;21.40;80.80;;;;;;4953317;29;20461;-68
2022/05/12 13:56:10;;;;;;;1.30;1.00;;;21.30;78.50;;;;;;4954230;29;20969;-67
2022/05/12 13:58:48;;;;;;;0.83;0.83;;;21.40;79.40;;;;;;4957134;28;20542;-68
2022/05/12 14:01:28;;;;;;;0.67;0.67;;;21.50;80.20;;;;;;4972722;28;20514;-68
2022/05/12 14:04:10;;;;;;;0.80;0.70;;;21.60;80.60;;;;;;4972973;28;20905;-67
2022/05/12 14:06:42;;;;;;;0.67;0.67;;;21.40;79.90;;;;;;4973045;28;20495;-68
2022/05/12 14:09:16;;;;;;;0.97;0.87;;;21.30;81.40;;;;;;4972318;28;20511;-68
2022/05/12 14:11:55;;;;;;;1.07;0.60;;;21.20;80.90;;;;;;4973071;28;20468;-67
2022/05/12 14:19:50;;;;;;;0.87;0.87;;;20.80;81.90;;;;;;4972170;28;20505;-68
2022/05/12 14:22:18;;;;;;;0.60;0.60;;;20.70;83.30;;;;;;4972304;28;20463;-69
2022/05/12 14:24:47;;;;;;;1.10;1.03;;;20.90;82.70;;;;;;4972003;28;20538;-68
2022/05/12 14:27:17;;;;;;;0.70;0.70;;;21.10;83.00;;;;;;4972539;28;20515;-70
2022/05/12 14:29:43;;;;;;;1.27;0.90;;;21.10;82.50;;;;;;4972196;28;20531;-67
2022/05/12 14:32:13;;;;;;;0.50;0.50;;;21.10;82.20;;;;;;4972418;28;20476;-69
2022/05/12 14:34:41;;;;;;;4.03;0.80;;;21.10;82.80;;;;;;4966785;28;20461;-68
2022/05/12 14:37:09;;;;;;;0.60;0.60;;;21.10;81.50;;;;;;4948743;29;20481;-68
2022/05/12 14:39:36;;;;;;;0.83;0.80;;;21.00;81.90;;;;;;4951900;29;20941;-68
2022/05/12 14:42:06;;;;;;;1.83;0.80;;;21.10;80.70;;;;;;4953823;29;20473;-69
2022/05/12 14:44:33;;;;;;;0.83;0.83;;;21.10;80.10;;;;;;4953386;29;20568;-68
2022/05/12 14:47:04;;;;;;;0.80;0.80;;;21.10;80.90;;;;;;4953344;29;20829;-68
2022/05/12 14:49:33;;;;;;;1.00;1.00;;;21.10;81.70;;;;;;4953281;29;20468;-69
2022/05/12 14:52:01;;;;;;;0.87;0.87;;;21.10;81.70;;;;;;4950790;28;20473;-69
2022/05/12 14:54:28;;;;;;;1.00;1.00;;;21.20;80.60;;;;;;4950597;29;20872;-69
2022/05/12 14:56:56;;;;;;;0.90;0.70;;;21.20;81.60;;;;;;4952847;29;20484;-69
2022/05/12 14:59:24;;;;;;;1.07;1.07;;;21.30;82.60;;;;;;4952995;29;20573;-70
2022/05/12 15:01:52;;;;;;;0.70;0.70;;;21.30;82.20;;;;;;4950155;29;20473;-68
2022/05/12 15:04:20;;;;;;;0.70;0.70;;;21.20;81.60;;;;;;4953121;29;20560;-68
2022/05/12 15:06:49;;;;;;;1.07;0.70;;;21.30;82.70;;;;;;4953154;29;20485;-69
2022/05/12 15:09:16;;;;;;;1.50;1.07;;;21.30;82.00;;;;;;4951943;29;20619;-68
2022/05/12 15:11:43;;;;;;;1.30;1.30;;;21.40;82.20;;;;;;4950738;29;20468;-69
2022/05/12 15:14:09;;;;;;;0.90;0.90;;;21.70;82.20;;;;;;4952979;29;20467;-68
2022/05/12 15:16:39;;;;;;;0.93;0.73;;;21.80;81.90;;;;;;4952575;29;20539;-69
2022/05/12 15:19:05;;;;;;;0.80;0.80;;;21.80;80.60;;;;;;4952016;29;20527;-69
2022/05/12 15:21:32;;;;;;;0.97;0.97;;;21.70;81.50;;;;;;4950325;29;20473;-68
2022/05/12 15:23:59;;;;;;;2.00;0.93;;;21.50;81.80;;;;;;4948217;29;20533;-68
2022/05/12 15:26:30;;;;;;;1.23;1.13;;;21.20;82.00;;;;;;4949021;28;20562;-70
2022/05/12 15:28:57;;;;;;;1.33;0.83;;;21.10;82.60;;;;;;4940174;29;20465;-69
2022/05/12 15:31:24;;;;;;;0.73;0.73;;;21.00;83.60;;;;;;4935847;29;20469;-70
2022/05/12 15:33:52;;;;;;;1.30;0.80;;;20.90;83.80;;;;;;4955409;29;20472;-70
2022/05/12 15:36:23;;;;;;;1.30;1.20;;;20.90;85.30;;;;;;4966870;29;20488;-70
2022/05/12 15:38:50;;;;;;;2.03;1.43;;;20.90;84.60;;;;;;4968451;29;20468;-69
2022/05/12 15:41:17;;;;;;;2.23;1.53;;;20.90;81.80;;;;;;4968912;29;20508;-70
2022/05/12 15:43:44;;;;;;;2.63;1.93;;;21.10;80.90;;;;;;4967936;29;20481;-69
2022/05/12 15:46:17;;;;;;;1.70;1.70;;;21.20;80.30;;;;;;4967913;29;20488;-70
2022/05/12 15:48:43;;;;;;;1.83;1.73;;;21.10;80.20;;;;;;4961152;29;20473;-71
2022/05/12 15:51:11;;;;;;;1.57;1.47;;;21.10;81.40;;;;;;4960942;29;20461;-70
2022/05/12 15:53:38;;;;;;;1.97;1.90;;;21.10;81.60;;;;;;4960870;29;21040;-70
2022/05/12 15:56:05;;;;;;;1.40;1.40;;;21.10;81.20;;;;;;4959625;29;20563;-70
2022/05/12 15:58:31;;;;;;;1.87;1.77;;;21.00;81.50;;;;;;4950423;29;20461;-70
2022/05/12 16:00:58;;;;;;;1.70;1.60;;;21.10;82.20;;;;;;4975913;28;20456;-69
2022/05/12 16:03:25;;;;;;;1.40;1.40;;;21.00;81.70;;;;;;4979658;28;20470;-68
2022/05/12 16:05:51;;;;;;;4.87;1.37;;;21.00;82.10;;;;;;4979781;28;20522;-69
2022/05/12 16:08:19;;;;;;;1.60;1.60;;;20.90;81.70;;;;;;4977755;28;20533;-70
2022/05/12 16:10:51;;;;;;;1.80;1.70;;;20.80;81.90;;;;;;4975220;28;20928;-69
2022/05/12 16:13:22;;;;;;;2.70;2.60;;;20.70;82.50;;;;;;4975316;28;20474;-69
2022/05/12 16:15:49;;;;;;;2.93;2.73;;;20.50;79.70;;;;;;4975150;28;20479;-69
2022/05/12 16:18:15;;;;;;;2.60;2.40;;;20.40;78.80;;;;;;4998681;23;21035;-72
2022/05/12 16:20:42;;;;;;;2.70;2.50;;;20.30;80.30;;;;;;4975210;28;20610;-72
2022/05/12 16:23:09;;;;;;;2.63;2.53;;;20.10;82.40;;;;;;4975047;28;20541;-72
2022/05/12 16:25:46;;;;;;;2.50;2.40;;;20.10;82.70;;;;;;4975902;28;20991;-72
2022/05/12 16:28:18;;;;;;;2.47;2.37;;;20.00;83.80;;;;;;4975770;28;20920;-71
2022/05/12 16:30:45;;;;;;;2.30;1.60;;;20.00;84.80;;;;;;4975375;28;20495;-71
2022/05/12 16:33:11;;;;;;;5.13;4.20;;;20.00;85.60;;;;;;4975488;28;20533;-71
2022/05/12 16:35:41;;;;;;;12.07;10.40;;;19.90;86.50;;;;;;4968260;28;20813;-72
2022/05/12 16:38:08;;;;;;;23.40;16.40;;;19.90;86.80;;;;;;4981636;28;20509;-72
2022/05/12 16:40:36;;;;;;;11.93;9.27;;;19.70;87.20;;;;;;4994665;28;20616;-72
2022/05/12 16:43:04;;;;;;;7.50;6.30;;;19.60;87.70;;;;;;4994915;28;20524;-72
2022/05/12 16:45:31;;;;;;;8.77;6.30;;;19.60;88.30;;;;;;4994978;28;20495;-71
2022/05/12 16:48:04;;;;;;;5.70;5.20;;;19.50;88.30;;;;;;4994698;28;20983;-72
2022/05/12 16:50:30;;;;;;;12.57;10.60;;;19.50;89.50;;;;;;4994291;28;20462;-72
2022/05/12 16:52:57;;;;;;;8.33;7.53;;;19.50;90.20;;;;;;4994115;28;20471;-72
2022/05/12 16:55:26;;;;;;;4.27;3.87;;;19.40;91.30;;;;;;4994502;28;20479;-72
2022/05/12 16:57:54;;;;;;;3.80;2.70;;;19.30;91.60;;;;;;4994946;28;21013;-72
2022/05/12 17:00:22;;;;;;;1.73;1.63;;;19.20;91.60;;;;;;4994890;28;20477;-71
2022/05/12 17:02:49;;;;;;;2.00;1.90;;;19.10;92.10;;;;;;4993984;28;20554;-72
2022/05/12 17:05:16;;;;;;;4.83;1.50;;;19.00;92.60;;;;;;4994251;28;21003;-72
2022/05/12 17:07:43;;;;;;;3.43;1.93;;;19.00;93.00;;;;;;4993880;28;20498;-72
2022/05/12 17:10:10;;;;;;;1.63;1.53;;;19.00;93.50;;;;;;4993296;28;20481;-72
2022/05/12 17:12:36;;;;;;;2.33;1.40;;;19.00;93.90;;;;;;4993951;28;20990;-72
2022/05/12 17:15:05;;;;;;;1.40;1.30;;;18.90;94.80;;;;;;4993642;28;20474;-72
2022/05/12 17:17:32;;;;;;;3.23;1.60;;;18.80;95.90;;;;;;4993948;28;20495;-73
2022/05/12 17:20:00;;;;;;;1.80;1.43;;;18.70;96.80;;;;;;4993173;28;20462;-72
2022/05/12 17:22:27;;;;;;;2.30;2.00;;;18.50;97.60;;;;;;4993123;28;20466;-72
2022/05/12 17:24:53;;;;;;;1.40;1.00;;;18.50;98.50;;;;;;4985560;28;20479;-72
2022/05/12 17:27:20;;;;;;;1.50;1.40;;;18.40;99.00;;;;;;4993307;28;20486;-71
2022/05/12 17:29:47;;;;;;;1.90;1.40;;;18.30;99.70;;;;;;4993423;28;20529;-72
2022/05/12 17:32:15;;;;;;;1.83;1.67;;;18.30;99.90;;;;;;4993686;28;20521;-71
2022/05/12 17:34:42;;;;;;;1.60;1.50;;;18.30;99.90;;;;;;4993299;28;20952;-72